Time;durP1;ratioP1;P1;durP2;ratioP2;P2;SDS_P1;SDS_P2;PMS_P1;PMS_P2;Temp;Humidity;BMP_temperature;BMP_pressure;BME280_temperature;BME280_humidity;BME280_pressure;Samples;Min_cycle;Max_cycle;Signal;HPM_P1;HPM_P2
2022/12/07 00:02:19;;;;;;;16.00;9.20;;;;;;;5.07;100.00;100664.47;4935798;29;20063;-81
2022/12/07 00:04:48;;;;;;;20.08;9.48;;;;;;;4.87;100.00;100664.06;4935898;29;20055;-81
2022/12/07 00:07:16;;;;;;;22.90;9.65;;;;;;;4.97;100.00;100654.25;4935854;29;20059;-81
2022/12/07 00:09:44;;;;;;;19.98;9.98;;;;;;;4.93;100.00;100658.50;4934766;29;20051;-82
2022/12/07 00:12:12;;;;;;;23.65;10.10;;;;;;;5.14;100.00;100652.66;4935768;29;20108;-82
2022/12/07 00:14:40;;;;;;;18.08;10.40;;;;;;;5.03;100.00;100647.03;4932485;29;20067;-82
2022/12/07 00:17:08;;;;;;;18.05;9.48;;;;;;;5.07;100.00;100650.91;4935701;29;20051;-82
2022/12/07 00:19:35;;;;;;;18.00;9.55;;;;;;;4.84;100.00;100649.13;4934604;29;20059;-81
2022/12/07 00:22:03;;;;;;;17.70;9.35;;;;;;;4.93;100.00;100641.41;4919471;29;20402;-81
2022/12/07 00:24:30;;;;;;;19.42;10.07;;;;;;;5.03;100.00;100643.50;4935061;29;20040;-81
2022/12/07 00:26:58;;;;;;;15.88;8.93;;;;;;;4.95;100.00;100637.38;4935272;29;20044;-81
2022/12/07 00:29:26;;;;;;;14.05;8.85;;;;;;;4.74;100.00;100641.56;4933855;29;20406;-81
2022/12/07 00:31:54;;;;;;;14.00;9.25;;;;;;;4.70;100.00;100640.41;4935367;29;20574;-80
2022/12/07 00:34:22;;;;;;;15.18;8.15;;;;;;;4.51;100.00;100643.28;4928921;29;20035;-81
2022/12/07 00:36:50;;;;;;;15.27;8.43;;;;;;;4.42;100.00;100648.25;4935337;29;20056;-81
2022/12/07 00:39:17;;;;;;;15.00;8.45;;;;;;;4.53;100.00;100645.72;4934424;29;20039;-81
2022/12/07 00:41:45;;;;;;;18.83;8.45;;;;;;;4.73;100.00;100642.63;4935073;29;20054;-80
2022/12/07 00:44:13;;;;;;;17.42;9.35;;;;;;;4.77;100.00;100654.66;4949450;29;20054;-82
2022/12/07 00:46:41;;;;;;;18.67;9.25;;;;;;;4.77;100.00;100645.69;4934401;29;20048;-81
2022/12/07 00:49:09;;;;;;;19.23;9.20;;;;;;;4.82;100.00;100646.63;4934154;29;20067;-83
2022/12/07 00:51:36;;;;;;;17.73;9.88;;;;;;;4.78;100.00;100661.72;4949648;29;20059;-81
2022/12/07 00:54:04;;;;;;;15.82;9.35;;;;;;;4.76;100.00;100646.75;4934752;29;20062;-81
2022/12/07 00:56:32;;;;;;;13.63;7.93;;;;;;;4.71;100.00;100642.06;4935214;29;20410;-81
2022/12/07 00:59:02;;;;;;;16.30;8.43;;;;;;;4.95;100.00;100644.72;4933447;29;20052;-81
2022/12/07 01:01:33;;;;;;;18.42;9.00;;;;;;;4.84;100.00;100638.28;4933880;29;20051;-81
2022/12/07 01:04:02;;;;;;;17.90;9.18;;;;;;;4.78;100.00;100642.75;4934941;29;20066;-81
2022/12/07 01:06:31;;;;;;;14.57;7.82;;;;;;;4.79;100.00;100636.25;4935300;29;20063;-81
2022/12/07 01:08:59;;;;;;;16.60;8.70;;;;;;;4.63;100.00;100635.13;4932999;29;20043;-81
2022/12/07 01:11:29;;;;;;;14.30;7.55;;;;;;;4.29;100.00;100635.75;4949074;29;20422;-81
2022/12/07 01:13:59;;;;;;;13.60;8.13;;;;;;;4.34;100.00;100648.56;4926310;29;20056;-81
2022/12/07 01:16:29;;;;;;;13.02;7.53;;;;;;;4.41;100.00;100640.34;4930357;29;20044;-81
2022/12/07 01:18:58;;;;;;;15.15;8.25;;;;;;;4.26;100.00;100638.91;4923659;29;20067;-81
2022/12/07 01:21:35;;;;;;;12.93;7.18;;;;;;;4.27;100.00;100648.72;4933218;29;20485;-81
2022/12/07 01:24:06;;;;;;;11.48;7.00;;;;;;;4.15;100.00;100647.88;4934220;29;20108;-81
2022/12/07 01:26:33;;;;;;;17.75;7.65;;;;;;;4.29;100.00;100638.47;4934839;29;20520;-81
2022/12/07 01:29:01;;;;;;;16.90;8.93;;;;;;;4.28;100.00;100653.06;4933393;29;20079;-81
2022/12/07 01:31:30;;;;;;;13.15;7.47;;;;;;;4.47;100.00;100644.81;4934792;29;20048;-81
2022/12/07 01:33:59;;;;;;;15.55;8.30;;;;;;;4.42;100.00;100645.53;4934306;29;20056;-81
2022/12/07 01:36:29;;;;;;;14.98;7.75;;;;;;;4.46;100.00;100643.16;4934338;29;20054;-79
2022/12/07 01:39:00;;;;;;;11.95;7.72;;;;;;;4.42;100.00;100642.81;4934005;29;20418;-79
2022/12/07 01:41:34;;;;;;;15.13;7.90;;;;;;;4.28;100.00;100638.69;4933366;29;20072;-78
2022/12/07 01:44:23;;;;;;;11.80;7.20;;;;;;;4.42;100.00;100644.69;4934243;29;20060;-77
2022/12/07 01:46:56;;;;;;;15.15;7.53;;;;;;;4.36;100.00;100634.81;4933377;29;20051;-80
2022/12/07 01:49:40;;;;;;;11.90;7.78;;;;;;;4.43;100.00;100638.19;4934268;29;20058;-80
2022/12/07 01:52:17;;;;;;;13.65;8.23;;;;;;;4.43;100.00;100633.63;4934590;29;20051;-79
2022/12/07 01:54:47;;;;;;;14.50;8.70;;;;;;;4.36;100.00;100623.97;4933744;29;20055;-79
2022/12/07 01:57:16;;;;;;;13.52;7.90;;;;;;;4.36;100.00;100630.22;4934857;29;20047;-79
2022/12/07 01:59:47;;;;;;;16.55;9.00;;;;;;;4.51;100.00;100632.44;4933892;29;20051;-79
2022/12/07 02:02:23;;;;;;;12.90;7.30;;;;;;;4.57;100.00;100631.50;4932656;29;20141;-80
2022/12/07 02:04:53;;;;;;;16.65;8.23;;;;;;;4.31;100.00;100630.09;4933957;29;20099;-80
2022/12/07 02:07:23;;;;;;;17.50;8.75;;;;;;;4.13;100.00;100631.88;4934264;29;20060;-81
2022/12/07 02:09:50;;;;;;;14.80;8.05;;;;;;;4.22;100.00;100635.06;4933711;29;20051;-79
2022/12/07 02:12:19;;;;;;;13.30;7.78;;;;;;;4.29;100.00;100627.63;4951563;28;20059;-80
2022/12/07 02:14:48;;;;;;;14.20;8.02;;;;;;;4.23;100.00;100616.91;4937402;29;20058;-79
2022/12/07 02:17:41;;;;;;;13.52;7.55;;;;;;;4.30;100.00;100626.56;4937992;29;20189;-79
2022/12/07 02:20:30;;;;;;;17.48;8.10;;;;;;;4.35;100.00;100615.00;4921481;29;20398;-79
2022/12/07 02:23:34;;;;;;;16.42;8.55;;;;;;;4.35;100.00;100611.47;4932229;29;20060;-79
2022/12/07 02:26:40;;;;;;;15.30;8.15;;;;;;;4.23;100.00;100617.72;4936076;29;20052;-79
2022/12/07 02:29:22;;;;;;;15.63;8.00;;;;;;;4.12;100.00;100615.84;4922131;29;20060;-79
2022/12/07 02:32:11;;;;;;;15.95;7.85;;;;;;;4.12;100.00;100611.25;4937352;29;20072;-79
2022/12/07 02:34:50;;;;;;;14.27;7.85;;;;;;;4.13;100.00;100610.19;4936194;29;20055;-79
2022/12/07 02:37:49;;;;;;;14.40;8.93;;;;;;;4.26;100.00;100611.81;4937119;29;20044;-79
2022/12/07 02:40:25;;;;;;;15.75;8.52;;;;;;;4.28;100.00;100608.88;4935350;29;20055;-79
2022/12/07 02:43:07;;;;;;;14.95;8.65;;;;;;;4.24;100.00;100608.53;4936432;29;20055;-79
2022/12/07 02:45:39;;;;;;;14.35;8.13;;;;;;;4.23;100.00;100615.03;4937071;29;20414;-79
2022/12/07 02:48:11;;;;;;;19.08;9.15;;;;;;;4.41;100.00;100602.41;4937137;29;20062;-80
2022/12/07 02:50:45;;;;;;;18.50;10.00;;;;;;;4.59;100.00;100597.91;4950264;29;20043;-79
2022/12/07 02:53:32;;;;;;;17.10;9.43;;;;;;;4.50;100.00;100611.78;4935679;29;20052;-78
2022/12/07 02:56:16;;;;;;;19.05;9.45;;;;;;;4.67;100.00;100608.34;4935927;29;20059;-78
2022/12/07 02:58:54;;;;;;;18.70;8.68;;;;;;;4.67;100.00;100606.47;4936375;29;20487;-79
2022/12/07 03:01:25;;;;;;;20.98;8.43;;;;;;;4.59;100.00;100597.91;4936659;29;20052;-79
2022/12/07 03:04:12;;;;;;;14.27;8.98;;;;;;;4.58;100.00;100607.91;4936600;29;20051;-78
2022/12/07 03:06:48;;;;;;;16.02;9.00;;;;;;;4.57;100.00;100598.13;4936458;29;20486;-79
2022/12/07 03:09:42;;;;;;;21.10;8.85;;;;;;;4.54;100.00;100602.13;4934912;29;20052;-79
2022/12/07 03:12:18;;;;;;;19.02;9.20;;;;;;;4.54;100.00;100596.72;4930396;29;20059;-78
2022/12/07 03:14:55;;;;;;;17.65;8.48;;;;;;;4.43;100.00;100611.09;4936037;29;20060;-78
2022/12/07 03:17:28;;;;;;;18.65;8.48;;;;;;;4.59;100.00;100595.19;4936633;29;20050;-78
2022/12/07 03:20:00;;;;;;;19.63;10.30;;;;;;;4.62;100.00;100603.66;4935812;29;20051;-77
2022/12/07 03:22:32;;;;;;;14.82;8.15;;;;;;;4.73;100.00;100599.25;4935457;29;20039;-79
2022/12/07 03:25:05;;;;;;;19.83;8.95;;;;;;;4.61;100.00;100584.91;4936425;29;20055;-78
2022/12/07 03:27:42;;;;;;;14.70;8.82;;;;;;;4.61;100.00;100595.75;4935882;29;20056;-78
2022/12/07 03:30:14;;;;;;;14.43;8.23;;;;;;;4.60;100.00;100583.28;4934245;29;20467;-79
2022/12/07 03:32:52;;;;;;;17.42;8.52;;;;;;;4.62;100.00;100579.25;4935693;29;20048;-78
2022/12/07 03:35:26;;;;;;;17.15;8.65;;;;;;;4.57;100.00;100579.16;4934792;29;20521;-78
2022/12/07 03:38:21;;;;;;;18.23;9.88;;;;;;;4.39;100.00;100578.25;4936478;29;20052;-78
2022/12/07 03:41:04;;;;;;;22.73;9.48;;;;;;;4.38;100.00;100583.91;4935372;29;20055;-78
2022/12/07 03:43:32;;;;;;;20.35;10.15;;;;;;;4.22;100.00;100580.88;4935696;29;20486;-78
2022/12/07 03:46:51;;;;;;;17.15;8.70;;;;;;;4.15;100.00;100575.56;4934843;29;20055;-79
2022/12/07 03:49:28;;;;;;;16.75;9.00;;;;;;;4.14;100.00;100570.38;4913638;29;20055;-79
2022/12/07 03:52:31;;;;;;;19.48;8.93;;;;;;;4.00;100.00;100565.22;4936076;29;20063;-78
2022/12/07 03:55:06;;;;;;;16.17;9.15;;;;;;;4.06;100.00;100573.47;4935980;29;20055;-81
2022/12/07 03:57:36;;;;;;;17.38;8.60;;;;;;;4.11;100.00;100568.16;4936037;29;20059;-81
2022/12/07 04:00:06;;;;;;;16.38;9.10;;;;;;;4.11;100.00;100566.25;4935248;29;20058;-81
2022/12/07 04:02:38;;;;;;;16.30;8.45;;;;;;;3.92;100.00;100567.44;4935225;29;20051;-80
2022/12/07 04:05:07;;;;;;;16.25;8.73;;;;;;;3.93;100.00;100560.97;4935883;29;20055;-80
2022/12/07 04:07:35;;;;;;;17.17;8.57;;;;;;;4.06;100.00;100552.59;4926633;29;20048;-79
2022/12/07 04:10:04;;;;;;;20.38;9.93;;;;;;;4.04;100.00;100560.16;4924740;29;20047;-80
2022/12/07 04:12:32;;;;;;;16.23;9.38;;;;;;;4.17;100.00;100559.09;4922031;29;20063;-80
2022/12/07 04:15:00;;;;;;;15.80;8.88;;;;;;;4.04;100.00;100560.16;4933503;29;20051;-80
2022/12/07 04:17:28;;;;;;;15.15;8.65;;;;;;;4.22;100.00;100566.50;4925166;29;20494;-82
2022/12/07 04:19:55;;;;;;;17.75;9.25;;;;;;;4.33;100.00;100559.41;4933130;29;20063;-81
2022/12/07 04:22:23;;;;;;;16.45;9.20;;;;;;;4.41;100.00;100564.47;4935410;29;20058;-81
2022/12/07 04:24:51;;;;;;;19.05;9.77;;;;;;;4.41;100.00;100559.03;4935455;29;20486;-80
2022/12/07 04:27:19;;;;;;;17.10;8.35;;;;;;;4.37;100.00;100552.44;4934984;29;20067;-81
2022/12/07 04:29:47;;;;;;;17.85;9.23;;;;;;;4.29;100.00;100551.75;4934216;29;20394;-81
2022/12/07 04:32:15;;;;;;;15.95;9.13;;;;;;;4.29;100.00;100557.19;4935568;29;20056;-81
2022/12/07 04:34:42;;;;;;;14.75;8.20;;;;;;;4.28;100.00;100563.66;4934865;29;20066;-81
2022/12/07 04:37:10;;;;;;;12.70;7.50;;;;;;;4.34;100.00;100548.31;4935371;29;20050;-81
2022/12/07 04:39:38;;;;;;;14.23;7.38;;;;;;;4.43;100.00;100551.50;4934542;29;20052;-82
2022/12/07 04:42:06;;;;;;;12.40;7.60;;;;;;;4.33;100.00;100543.13;4934750;29;20063;-82
2022/12/07 04:44:34;;;;;;;16.02;8.13;;;;;;;4.49;100.00;100547.81;4934727;29;20054;-80
2022/12/07 04:47:02;;;;;;;11.93;6.95;;;;;;;4.43;100.00;100556.91;4931563;29;20058;-81
2022/12/07 04:49:30;;;;;;;14.73;8.43;;;;;;;4.37;100.00;100555.16;4934422;29;20044;-82
2022/12/07 04:51:58;;;;;;;17.80;7.25;;;;;;;4.26;100.00;100560.34;4935376;29;20051;-82
2022/12/07 04:54:26;;;;;;;15.43;7.05;;;;;;;4.34;100.00;100561.06;4934934;29;20055;-81
2022/12/07 04:56:54;;;;;;;13.85;6.13;;;;;;;4.12;100.00;100559.81;4933499;29;20039;-81
2022/12/07 04:59:22;;;;;;;14.57;7.00;;;;;;;3.97;100.00;100560.25;4934022;29;20051;-81
2022/12/07 05:01:49;;;;;;;12.93;7.30;;;;;;;4.20;100.00;100561.31;4934804;29;20494;-80
2022/12/07 05:04:17;;;;;;;10.23;6.90;;;;;;;4.16;100.00;100562.84;4949564;29;20048;-81
2022/12/07 05:06:45;;;;;;;11.40;7.20;;;;;;;4.27;100.00;100562.03;4934004;29;20434;-82
2022/12/07 05:09:13;;;;;;;10.93;7.07;;;;;;;4.16;100.00;100568.28;4934222;29;20051;-81
2022/12/07 05:11:41;;;;;;;11.73;6.68;;;;;;;4.13;100.00;100569.56;4934280;29;20489;-81
2022/12/07 05:14:20;;;;;;;9.15;6.63;;;;;;;3.93;100.00;100559.09;4934775;29;20066;-82
2022/12/07 05:16:50;;;;;;;10.70;6.82;;;;;;;3.82;100.00;100552.59;4935081;29;20388;-82
2022/12/07 05:19:19;;;;;;;11.20;6.80;;;;;;;3.93;100.00;100550.97;4931566;29;20044;-81
2022/12/07 05:21:47;;;;;;;10.82;6.70;;;;;;;3.83;100.00;100554.28;4934060;29;20056;-82
2022/12/07 05:24:16;;;;;;;8.02;5.55;;;;;;;3.68;100.00;100553.91;4934023;29;20051;-82
2022/12/07 05:26:44;;;;;;;10.63;6.30;;;;;;;3.88;100.00;100542.75;4934110;29;20047;-83
2022/12/07 05:29:14;;;;;;;9.50;6.20;;;;;;;3.98;100.00;100544.84;4934014;29;20383;-83
2022/12/07 05:31:43;;;;;;;10.48;6.18;;;;;;;3.60;100.00;100542.38;4934765;29;20376;-84
2022/12/07 05:34:11;;;;;;;10.85;6.88;;;;;;;3.46;100.00;100540.94;4933232;29;20052;-82
2022/12/07 05:36:39;;;;;;;8.13;5.65;;;;;;;3.32;100.00;100543.06;4934669;29;20063;-83
2022/12/07 05:39:08;;;;;;;9.30;5.07;;;;;;;3.18;100.00;100543.25;4932525;29;20059;-82
2022/12/07 05:44:22;;;;;;;8.57;6.07;;;;;;;3.08;100.00;100541.09;4934135;29;20083;-84
2022/12/07 05:46:50;;;;;;;9.10;6.15;;;;;;;3.22;100.00;100544.44;4937086;29;20056;-84
2022/12/07 05:49:17;;;;;;;7.97;5.47;;;;;;;2.93;100.00;100546.94;4937509;29;20047;-83
2022/12/07 05:51:45;;;;;;;9.63;6.45;;;;;;;2.87;100.00;100549.72;4950561;29;20051;-83
2022/12/07 05:54:13;;;;;;;8.43;6.07;;;;;;;2.80;100.00;100552.53;4935922;29;20057;-83
2022/12/07 05:56:41;;;;;;;8.30;5.38;;;;;;;2.86;100.00;100548.06;4938175;29;20052;-85
2022/12/07 05:59:24;;;;;;;10.43;6.10;;;;;;;2.77;100.00;100552.97;4937142;29;20047;-86
2022/12/07 06:01:54;;;;;;;9.18;6.05;;;;;;;2.65;100.00;100551.03;4937102;29;20039;-86
2022/12/07 06:04:24;;;;;;;10.98;6.15;;;;;;;2.74;100.00;100562.34;4937060;29;20046;-85
2022/12/07 06:06:52;;;;;;;10.23;5.28;;;;;;;2.71;100.00;100562.00;4929682;29;20035;-87
2022/12/07 06:09:22;;;;;;;10.60;6.22;;;;;;;2.68;100.00;100555.16;4935601;29;20055;-84
2022/12/07 06:14:37;;;;;;;7.50;5.50;;;;;;;2.64;100.00;100560.19;4937169;29;20055;-80
2022/12/07 06:17:05;;;;;;;7.93;5.47;;;;;;;2.68;100.00;100566.81;4937776;29;20058;-82
2022/12/07 06:19:33;;;;;;;9.07;5.60;;;;;;;2.72;100.00;100553.66;4937535;29;20047;-82
2022/12/07 06:22:02;;;;;;;11.23;5.70;;;;;;;2.73;100.00;100552.59;4937199;29;20066;-80
2022/12/07 06:24:32;;;;;;;13.63;5.85;;;;;;;2.71;100.00;100556.59;4937378;29;20059;-83
2022/12/07 06:27:00;;;;;;;9.60;5.47;;;;;;;2.58;100.00;100547.59;4936345;29;20410;-82
2022/12/07 06:29:28;;;;;;;8.15;5.25;;;;;;;2.71;100.00;100559.28;4935654;29;20055;-83
2022/12/07 06:31:56;;;;;;;5.78;5.00;;;;;;;2.75;100.00;100560.50;4937557;29;20052;-84
2022/12/07 06:34:25;;;;;;;10.18;5.55;;;;;;;2.84;100.00;100574.50;4937002;29;20482;-84
2022/12/07 06:36:54;;;;;;;6.68;5.40;;;;;;;2.65;100.00;100572.66;4936385;29;20395;-83
2022/12/07 06:39:25;;;;;;;11.20;5.63;;;;;;;2.61;100.00;100576.88;4937210;29;20404;-80
2022/12/07 06:41:54;;;;;;;9.13;5.03;;;;;;;2.30;100.00;100577.84;4937901;29;20402;-82
2022/12/07 06:44:23;;;;;;;9.98;6.03;;;;;;;2.40;100.00;100581.69;4935640;29;20044;-86
2022/12/07 06:46:51;;;;;;;8.32;5.22;;;;;;;2.36;100.00;100588.59;4937333;29;20380;-86
2022/12/07 06:49:39;;;;;;;8.50;5.40;;;;;;;2.37;100.00;100581.31;4937100;29;20079;-86
2022/12/07 06:52:07;;;;;;;11.52;5.93;;;;;;;2.18;100.00;100577.75;4937593;29;20044;-86
2022/12/07 06:54:35;;;;;;;11.48;5.63;;;;;;;2.26;100.00;100591.78;4936973;29;20051;-86
2022/12/07 06:57:03;;;;;;;8.85;5.72;;;;;;;2.28;100.00;100584.31;4937177;29;20051;-86
2022/12/07 06:59:31;;;;;;;10.48;6.05;;;;;;;2.18;100.00;100577.75;4937728;29;20047;-87
2022/12/07 07:01:59;;;;;;;9.98;5.43;;;;;;;2.06;100.00;100581.22;4937589;29;20051;-87
2022/12/07 07:04:27;;;;;;;9.10;5.85;;;;;;;2.14;100.00;100577.38;4936035;29;20403;-87
2022/12/07 07:06:54;;;;;;;8.65;5.22;;;;;;;2.13;100.00;100581.97;4937843;29;20063;-87
2022/12/07 07:09:27;;;;;;;8.48;5.07;;;;;;;1.86;100.00;100587.63;4937746;29;20406;-88
2022/12/07 07:11:55;;;;;;;7.30;5.43;;;;;;;1.93;100.00;100584.03;4936273;29;20048;-88
2022/12/07 07:14:23;;;;;;;5.80;4.93;;;;;;;2.00;100.00;100596.41;4952007;29;20056;-87
2022/12/07 07:16:51;;;;;;;7.90;5.22;;;;;;;1.87;100.00;100597.34;4937285;29;20078;-87
2022/12/07 07:19:19;;;;;;;11.43;5.97;;;;;;;1.83;100.00;100601.56;4936704;29;20048;-88
2022/12/07 07:21:46;;;;;;;8.90;5.63;;;;;;;1.98;100.00;100603.09;4937236;29;20051;-88
2022/12/07 07:24:14;;;;;;;8.90;6.70;;;;;;;2.01;100.00;100602.66;4936483;29;20053;-88
2022/12/07 07:26:42;;;;;;;9.02;5.93;;;;;;;2.05;100.00;100609.25;4936800;29;20391;-88
2022/12/07 07:29:10;;;;;;;8.65;6.18;;;;;;;2.11;100.00;100589.47;4936560;29;20055;-88
2022/12/07 07:31:38;;;;;;;12.10;6.50;;;;;;;2.05;100.00;100606.53;4937449;29;20506;-87
2022/12/07 07:34:06;;;;;;;8.00;6.35;;;;;;;2.21;100.00;100607.03;4937004;29;20050;-87
2022/12/07 07:36:34;;;;;;;9.30;6.00;;;;;;;2.47;100.00;100605.09;4936544;29;20058;-89
2022/12/07 07:39:01;;;;;;;8.82;6.00;;;;;;;2.59;100.00;100595.16;4936971;29;20044;-89
2022/12/07 07:41:29;;;;;;;8.85;5.68;;;;;;;2.49;100.00;100605.72;4937068;29;20063;-88
2022/12/07 07:43:57;;;;;;;10.65;6.80;;;;;;;2.64;99.75;100608.84;4950878;29;20055;-87
2022/12/07 07:46:25;;;;;;;9.55;6.40;;;;;;;2.93;98.47;100605.59;4936581;29;20059;-87
2022/12/07 07:48:53;;;;;;;7.47;6.00;;;;;;;2.92;98.22;100599.34;4936788;29;20058;-88
2022/12/07 07:51:21;;;;;;;7.80;6.25;;;;;;;3.04;98.31;100606.69;4935951;29;20066;-87
2022/12/07 07:53:49;;;;;;;9.70;6.47;;;;;;;3.21;97.71;100602.28;4936107;29;20501;-88
2022/12/07 07:56:17;;;;;;;8.32;6.20;;;;;;;3.37;97.06;100605.38;4936005;29;20509;-87
2022/12/07 07:58:44;;;;;;;9.18;6.25;;;;;;;3.31;96.86;100611.72;4936196;29;20060;-86
2022/12/07 08:01:13;;;;;;;9.73;6.13;;;;;;;3.34;97.03;100611.25;4936625;29;20060;-85
2022/12/07 08:03:41;;;;;;;9.23;6.43;;;;;;;3.43;97.54;100603.63;4935193;29;20406;-86
2022/12/07 08:06:09;;;;;;;7.57;5.90;;;;;;;3.72;97.60;100620.88;4935776;29;20056;-86
2022/12/07 08:08:36;;;;;;;10.75;6.75;;;;;;;3.83;97.14;100623.84;4935206;29;20063;-85
2022/12/07 08:11:06;;;;;;;11.35;6.43;;;;;;;4.04;95.54;100617.03;4950679;29;20062;-85
2022/12/07 08:13:34;;;;;;;10.95;6.38;;;;;;;4.05;95.52;100620.56;4935556;29;20404;-85
2022/12/07 08:16:08;;;;;;;11.73;6.40;;;;;;;4.05;95.51;100623.28;4936769;29;20044;-86
2022/12/07 08:18:38;;;;;;;8.43;6.53;;;;;;;4.23;95.35;100623.16;4939007;29;20067;-86
2022/12/07 08:21:10;;;;;;;13.98;7.20;;;;;;;4.04;95.33;100625.16;4940659;29;20124;-85
2022/12/07 08:23:38;;;;;;;10.65;7.35;;;;;;;4.07;95.50;100627.41;4925814;29;20048;-86
2022/12/07 08:26:10;;;;;;;9.93;6.15;;;;;;;4.27;94.45;100618.06;4936263;29;20051;-86
2022/12/07 08:28:39;;;;;;;10.20;6.38;;;;;;;4.49;94.45;100626.41;4935376;29;20487;-87
2022/12/07 08:31:11;;;;;;;11.50;6.35;;;;;;;4.73;93.31;100626.38;4933568;29;20067;-86
2022/12/07 08:33:39;;;;;;;12.25;5.78;;;;;;;4.57;93.79;100631.50;4935666;29;20395;-83
2022/12/07 08:36:09;;;;;;;14.18;6.70;;;;;;;4.60;93.91;100632.06;4935125;29;20063;-84
2022/12/07 08:38:38;;;;;;;13.02;6.32;;;;;;;4.99;91.59;100637.75;4935367;29;20040;-86
2022/12/07 08:41:07;;;;;;;8.75;6.03;;;;;;;5.14;91.80;100639.09;4935233;29;20052;-84
2022/12/07 08:43:35;;;;;;;8.23;4.90;;;;;;;5.24;91.29;100633.88;4935334;29;20043;-85
2022/12/07 08:46:06;;;;;;;8.98;5.63;;;;;;;5.28;90.24;100648.59;4935745;29;20048;-84
2022/12/07 08:48:37;;;;;;;8.27;5.63;;;;;;;5.55;89.42;100642.56;4934278;29;20059;-84
2022/12/07 08:51:05;;;;;;;6.80;5.00;;;;;;;5.46;88.57;100646.72;4935044;29;20070;-85
2022/12/07 08:53:34;;;;;;;9.10;5.25;;;;;;;5.86;89.25;100643.09;4935180;29;20060;-85
2022/12/07 08:56:02;;;;;;;6.47;4.60;;;;;;;5.63;88.96;100644.88;4935160;29;20056;-85
2022/12/07 08:58:30;;;;;;;9.18;5.60;;;;;;;5.92;89.08;100635.84;4935373;29;20051;-87
2022/12/07 09:00:58;;;;;;;9.70;5.88;;;;;;;5.99;89.10;100641.09;4935048;29;20056;-85
2022/12/07 09:03:25;;;;;;;14.15;6.97;;;;;;;6.07;87.71;100627.16;4934956;29;20044;-85
2022/12/07 09:05:54;;;;;;;16.55;7.38;;;;;;;6.22;88.14;100633.88;4935021;29;20047;-85
2022/12/07 09:08:38;;;;;;;10.00;6.38;;;;;;;6.53;87.73;100637.03;4935906;29;20047;-85
2022/12/07 09:11:06;;;;;;;9.45;6.38;;;;;;;6.61;85.69;100630.31;4935291;29;20067;-84
2022/12/07 09:13:34;;;;;;;13.52;6.50;;;;;;;6.80;86.25;100636.28;4935187;29;20066;-84
2022/12/07 09:16:02;;;;;;;12.65;6.68;;;;;;;6.63;87.98;100642.59;4935188;29;20410;-85
2022/12/07 09:18:30;;;;;;;10.93;6.15;;;;;;;6.58;88.90;100632.50;4934926;29;20058;-84
2022/12/07 09:20:58;;;;;;;12.85;6.40;;;;;;;6.67;88.54;100635.59;4935972;29;20058;-85
2022/12/07 09:23:26;;;;;;;11.13;6.85;;;;;;;6.80;88.34;100647.97;4938877;29;20047;-84
2022/12/07 09:25:53;;;;;;;15.05;7.68;;;;;;;6.45;88.49;100636.38;4938706;29;20520;-84
2022/12/07 09:28:21;;;;;;;11.02;7.45;;;;;;;6.56;88.53;100633.81;4938620;29;20048;-84
2022/12/07 09:30:49;;;;;;;8.93;6.13;;;;;;;6.81;88.87;100636.03;4938586;29;20487;-85
2022/12/07 09:33:37;;;;;;;15.82;7.07;;;;;;;7.02;86.36;100630.00;4938380;29;20051;-84
2022/12/07 09:36:05;;;;;;;13.48;6.90;;;;;;;7.09;87.26;100634.16;4937787;29;20052;-84
2022/12/07 09:38:33;;;;;;;12.82;6.80;;;;;;;6.93;87.34;100633.19;4951631;29;20067;-84
2022/12/07 09:41:07;;;;;;;12.15;7.00;;;;;;;7.16;86.54;100635.88;4937830;29;20403;-85
2022/12/07 09:43:36;;;;;;;15.97;7.07;;;;;;;7.22;86.52;100627.50;4937051;29;20052;-84
2022/12/07 09:46:04;;;;;;;12.05;6.25;;;;;;;7.80;85.67;100624.25;4937142;29;20379;-84
2022/12/07 09:48:39;;;;;;;10.80;6.70;;;;;;;7.87;84.18;100615.03;4937207;29;20046;-85
2022/12/07 09:51:24;;;;;;;11.35;6.50;;;;;;;7.78;84.40;100615.50;4936971;29;20056;-84
2022/12/07 09:53:55;;;;;;;9.60;6.78;;;;;;;7.92;83.36;100609.63;4937161;29;20067;-85
2022/12/07 09:56:23;;;;;;;10.05;6.47;;;;;;;8.16;82.68;100614.69;4937286;29;20059;-85
2022/12/07 09:59:00;;;;;;;10.95;7.47;;;;;;;8.43;82.22;100613.75;4937191;29;20384;-85
2022/12/07 10:01:31;;;;;;;12.98;7.25;;;;;;;8.45;82.73;100612.38;4936846;29;20059;-85
2022/12/07 10:04:21;;;;;;;13.10;8.38;;;;;;;8.60;80.76;100605.38;4937242;29;20414;-85
2022/12/07 10:06:51;;;;;;;16.05;8.35;;;;;;;8.60;81.60;100599.94;4935497;29;20063;-85
2022/12/07 10:09:21;;;;;;;17.10;7.70;;;;;;;8.56;82.27;100599.66;4936715;29;20062;-85
2022/12/07 10:12:09;;;;;;;15.18;8.98;;;;;;;8.51;82.01;100593.31;4936609;29;20078;-85
2022/12/07 10:14:39;;;;;;;15.95;9.00;;;;;;;8.46;83.12;100596.84;4936475;29;20048;-85
2022/12/07 10:17:31;;;;;;;19.42;10.35;;;;;;;8.55;83.40;100600.72;4936461;29;20056;-85
2022/12/07 10:20:20;;;;;;;17.25;9.85;;;;;;;8.39;82.23;100594.34;4936580;29;20406;-84
2022/12/07 10:22:59;;;;;;;18.55;10.77;;;;;;;8.60;83.00;100597.19;4936538;29;20060;-84
2022/12/07 10:25:34;;;;;;;17.10;9.23;;;;;;;8.49;82.62;100592.78;4936587;29;20043;-85
2022/12/07 10:28:08;;;;;;;16.27;9.68;;;;;;;8.46;84.69;100599.59;4936396;29;20411;-84
2022/12/07 10:31:03;;;;;;;18.80;10.10;;;;;;;8.72;82.74;100599.72;4936418;29;20048;-84
2022/12/07 10:33:33;;;;;;;19.45;9.93;;;;;;;8.93;82.54;100588.84;4936259;29;20052;-84
2022/12/07 10:36:18;;;;;;;20.73;9.68;;;;;;;8.83;83.51;100579.56;4895659;29;1217315;-85
2022/12/07 10:38:52;;;;;;;21.70;9.65;;;;;;;8.98;83.60;100580.69;4937610;29;20584;-85
2022/12/07 10:41:20;;;;;;;16.50;8.40;;;;;;;8.86;82.53;100580.94;4937481;29;20075;-84
2022/12/07 10:43:54;;;;;;;16.25;8.48;;;;;;;9.14;81.81;100578.81;4937322;29;20055;-86
2022/12/07 10:46:45;;;;;;;14.73;9.18;;;;;;;9.16;81.36;100581.28;4937206;29;20039;-85
2022/12/07 10:49:38;;;;;;;25.63;10.23;;;;;;;8.94;82.26;100574.94;4937421;29;20059;-84
2022/12/07 10:52:27;;;;;;;16.80;9.57;;;;;;;8.78;82.78;100571.38;4935884;29;20059;-86
2022/12/07 10:55:07;;;;;;;10.88;7.50;;;;;;;9.07;83.19;100568.16;4936470;29;20399;-85
2022/12/07 10:57:53;;;;;;;13.13;7.80;;;;;;;8.64;84.41;100570.25;4936634;29;20054;-84
2022/12/07 11:00:26;;;;;;;11.30;7.80;;;;;;;8.57;84.42;100575.94;4937116;29;20438;-85
2022/12/07 11:02:59;;;;;;;11.95;7.88;;;;;;;8.22;85.48;100563.72;4936681;29;20054;-85
2022/12/07 11:05:50;;;;;;;12.13;7.30;;;;;;;7.86;87.54;100565.16;4936980;29;20431;-82
2022/12/07 11:09:05;;;;;;;14.25;7.50;;;;;;;7.73;86.88;100565.59;4936518;29;20503;-84
2022/12/07 11:11:44;;;;;;;16.55;8.80;;;;;;;7.53;89.79;100570.63;4918796;29;20056;-85
2022/12/07 11:14:29;;;;;;;17.70;8.15;;;;;;;7.57;88.76;100559.22;4937021;29;20058;-85
2022/12/07 11:17:08;;;;;;;14.18;8.38;;;;;;;7.44;87.72;100563.19;4936910;29;20402;-85
2022/12/07 11:19:50;;;;;;;17.50;9.55;;;;;;;7.41;89.42;100556.34;4936683;29;20047;-84
2022/12/07 11:22:37;;;;;;;14.82;8.40;;;;;;;7.31;90.14;100548.09;4936887;29;20082;-84
2022/12/07 11:25:30;;;;;;;18.35;9.02;;;;;;;6.80;91.38;100546.53;4936804;29;20062;-84
2022/12/07 11:28:25;;;;;;;15.18;8.60;;;;;;;7.24;91.57;100549.13;4935320;29;20054;-85
2022/12/07 11:31:11;;;;;;;16.67;8.73;;;;;;;7.68;88.62;100536.44;4935196;29;20052;-75
2022/12/07 11:34:21;;;;;;;13.98;8.68;;;;;;;7.95;87.13;100543.69;4936659;29;20059;-75
2022/12/07 11:36:53;;;;;;;16.42;8.52;;;;;;;8.12;86.85;100538.03;4925956;29;20051;-75
2022/12/07 11:39:28;;;;;;;11.93;7.78;;;;;;;8.30;85.44;100535.94;4936400;29;20044;-75
2022/12/07 11:42:05;;;;;;;14.60;8.63;;;;;;;8.27;85.14;100540.03;4936382;29;20479;-75
2022/12/07 11:44:45;;;;;;;15.57;8.38;;;;;;;8.23;85.52;100540.81;4935618;29;20055;-75
2022/12/07 11:47:12;;;;;;;13.70;8.15;;;;;;;8.57;83.91;100529.56;4936228;29;20051;-75
2022/12/07 11:49:53;;;;;;;17.13;8.90;;;;;;;8.33;85.18;100533.50;4935994;29;20055;-83
2022/12/07 11:52:40;;;;;;;14.57;8.00;;;;;;;8.45;84.65;100529.75;4935936;29;20060;-82
2022/12/07 11:55:21;;;;;;;13.82;8.02;;;;;;;8.30;84.27;100523.16;4936239;29;20059;-82